Time;durP1;ratioP1;P1;durP2;ratioP2;P2;SDS_P1;SDS_P2;PMS_P1;PMS_P2;Temp;Humidity;BMP_temperature;BMP_pressure;BME280_temperature;BME280_humidity;BME280_pressure;Samples;Min_cycle;Max_cycle;Signal;HPM_P1;HPM_P2
2023/06/22 00:01:24;;;;;;;4.80;4.50;;;29.80;52.20;;;;;;4996763;28;20189;-80
2023/06/22 00:03:50;;;;;;;4.63;4.23;;;29.80;52.10;;;;;;4997055;28;20213;-80
2023/06/22 00:06:16;;;;;;;4.73;4.33;;;29.70;52.20;;;;;;4982421;28;20444;-80
2023/06/22 00:08:42;;;;;;;4.40;4.20;;;29.70;52.20;;;;;;4980999;28;20228;-80
2023/06/22 00:11:08;;;;;;;4.90;4.50;;;29.70;52.20;;;;;;5002697;28;20737;-80
2023/06/22 00:13:36;;;;;;;4.43;4.13;;;29.70;52.20;;;;;;4984008;28;20507;-80
2023/06/22 00:16:04;;;;;;;4.70;4.40;;;29.70;52.20;;;;;;4990192;28;20186;-80
2023/06/22 00:18:35;;;;;;;4.70;4.30;;;29.60;52.10;;;;;;4982859;28;20529;-80
2023/06/22 00:21:06;;;;;;;4.70;4.40;;;29.60;52.20;;;;;;5002598;28;20420;-80
2023/06/22 00:23:34;;;;;;;4.90;4.60;;;29.60;52.20;;;;;;5017519;28;20745;-80
2023/06/22 00:26:02;;;;;;;4.50;4.20;;;29.60;52.10;;;;;;5017302;28;20432;-81
2023/06/22 00:28:28;;;;;;;4.93;4.50;;;29.60;52.20;;;;;;5008381;28;20416;-80
2023/06/22 00:30:55;;;;;;;4.70;4.40;;;29.60;52.20;;;;;;4965407;28;20462;-81
2023/06/22 00:33:20;;;;;;;4.80;4.17;;;29.50;52.20;;;;;;4980503;28;20413;-81
2023/06/22 00:35:46;;;;;;;4.60;4.30;;;29.60;52.30;;;;;;4980485;28;20448;-80
2023/06/22 00:38:12;;;;;;;6.13;4.70;;;29.50;52.30;;;;;;4986930;28;20237;-80
2023/06/22 00:40:41;;;;;;;5.00;4.70;;;29.50;52.30;;;;;;4983435;28;20170;-81
2023/06/22 00:43:09;;;;;;;5.13;4.73;;;29.50;52.40;;;;;;4980253;28;20448;-80
2023/06/22 00:45:40;;;;;;;4.60;4.30;;;29.50;52.40;;;;;;4987513;28;20201;-81
2023/06/22 00:48:09;;;;;;;5.43;4.80;;;29.50;52.50;;;;;;5017117;28;20422;-80
2023/06/22 00:50:45;;;;;;;6.30;4.50;;;29.50;52.50;;;;;;4982712;28;20889;-80
2023/06/22 00:53:11;;;;;;;5.20;4.73;;;29.40;52.50;;;;;;4980437;28;20422;-80
2023/06/22 00:55:51;;;;;;;4.67;4.37;;;29.40;52.50;;;;;;4964856;28;20441;-80
2023/06/22 00:58:21;;;;;;;5.03;4.73;;;29.50;52.70;;;;;;4980245;28;20421;-80
2023/06/22 01:00:48;;;;;;;5.70;5.30;;;29.40;52.70;;;;;;4981311;28;21132;-80
2023/06/22 01:03:14;;;;;;;4.70;4.40;;;29.40;52.70;;;;;;4999032;28;20442;-80
2023/06/22 01:05:40;;;;;;;5.50;5.10;;;29.40;52.80;;;;;;4992905;28;20468;-80
2023/06/22 01:08:25;;;;;;;4.87;4.47;;;29.40;52.80;;;;;;4996993;28;20437;-81
2023/06/22 01:11:01;;;;;;;5.20;4.70;;;29.40;52.80;;;;;;4980198;28;20436;-81
2023/06/22 01:13:50;;;;;;;5.27;4.77;;;29.40;52.90;;;;;;4980061;28;20842;-80
2023/06/22 01:16:23;;;;;;;4.60;4.30;;;29.30;52.90;;;;;;4993151;28;20432;-80
2023/06/22 01:18:59;;;;;;;4.93;4.63;;;29.30;53.00;;;;;;5016653;28;20491;-80
2023/06/22 01:21:31;;;;;;;5.07;4.67;;;29.30;53.00;;;;;;4954464;28;20417;-81
2023/06/22 01:24:07;;;;;;;5.57;5.17;;;29.30;53.10;;;;;;4984544;28;20456;-80
2023/06/22 01:26:50;;;;;;;5.00;4.70;;;29.30;53.10;;;;;;4984776;28;20441;-81
2023/06/22 01:29:19;;;;;;;4.83;4.50;;;29.30;53.20;;;;;;4999152;28;20412;-81
2023/06/22 01:31:49;;;;;;;5.13;4.77;;;29.30;53.20;;;;;;4983000;28;20949;-80
2023/06/22 01:34:16;;;;;;;5.93;4.37;;;29.20;53.20;;;;;;4987581;28;20421;-80
2023/06/22 01:36:45;;;;;;;5.20;4.70;;;29.30;53.30;;;;;;4979664;28;20465;-80
2023/06/22 01:39:14;;;;;;;5.40;5.00;;;29.20;53.30;;;;;;4979475;28;20421;-80
2023/06/22 01:41:42;;;;;;;4.43;4.10;;;29.20;53.30;;;;;;4979440;28;20777;-81
2023/06/22 01:44:12;;;;;;;5.27;4.87;;;29.20;53.40;;;;;;4988469;28;20483;-80
2023/06/22 01:46:39;;;;;;;4.97;4.57;;;29.20;53.40;;;;;;4998783;28;20768;-81
2023/06/22 01:49:11;;;;;;;5.33;4.93;;;29.20;53.40;;;;;;4997912;28;20972;-80
2023/06/22 01:51:37;;;;;;;5.43;5.03;;;29.20;53.50;;;;;;4982509;28;20452;-80
2023/06/22 01:54:08;;;;;;;5.17;4.77;;;29.20;53.60;;;;;;4969946;28;20478;-80
2023/06/22 01:56:34;;;;;;;5.43;5.03;;;29.10;53.50;;;;;;4959792;28;20489;-80
2023/06/22 01:59:20;;;;;;;5.10;4.70;;;29.10;53.50;;;;;;4959958;28;20487;-81
2023/06/22 02:02:06;;;;;;;4.87;4.47;;;29.10;53.60;;;;;;4970444;28;20605;-80
2023/06/22 02:04:42;;;;;;;5.37;5.00;;;29.10;53.60;;;;;;4978555;28;20449;-81
2023/06/22 02:07:14;;;;;;;5.53;5.13;;;29.10;53.70;;;;;;4994812;28;20478;-81
2023/06/22 02:09:48;;;;;;;4.57;4.27;;;29.10;53.70;;;;;;4978692;28;20455;-80
2023/06/22 02:12:21;;;;;;;4.63;4.33;;;29.00;53.70;;;;;;4995874;28;20722;-80
2023/06/22 02:14:51;;;;;;;5.73;5.13;;;29.00;53.70;;;;;;5013926;28;20459;-80
2023/06/22 02:17:18;;;;;;;4.80;4.50;;;29.10;53.80;;;;;;4959316;28;20801;-81
2023/06/22 02:19:44;;;;;;;5.40;5.10;;;29.00;53.80;;;;;;4943360;28;20469;-80
2023/06/22 02:22:18;;;;;;;5.30;4.80;;;29.00;53.80;;;;;;4961030;28;20454;-81
2023/06/22 02:24:44;;;;;;;6.10;5.60;;;29.00;53.90;;;;;;5011061;28;20479;-82
2023/06/22 02:27:10;;;;;;;5.73;5.33;;;29.00;53.90;;;;;;4997845;28;20991;-82
2023/06/22 02:29:37;;;;;;;5.50;5.10;;;29.00;54.00;;;;;;4993677;28;20413;-82
2023/06/22 02:32:03;;;;;;;5.10;4.70;;;29.00;54.00;;;;;;4986547;28;20428;-82
2023/06/22 02:34:36;;;;;;;5.80;5.40;;;28.90;54.00;;;;;;4982955;28;20522;-82
2023/06/22 02:37:02;;;;;;;5.80;5.30;;;29.00;54.10;;;;;;4982362;28;20433;-82
2023/06/22 02:39:31;;;;;;;5.83;5.43;;;29.00;54.10;;;;;;4998290;28;20456;-82
2023/06/22 02:41:56;;;;;;;5.83;5.33;;;28.90;54.10;;;;;;4987097;28;20425;-82
2023/06/22 02:44:22;;;;;;;5.80;5.40;;;28.90;54.10;;;;;;4976707;28;20538;-82
2023/06/22 02:46:51;;;;;;;5.43;5.03;;;28.90;54.20;;;;;;4971327;28;20818;-80
2023/06/22 02:49:17;;;;;;;4.87;4.57;;;28.90;54.20;;;;;;4962762;28;20439;-81
2023/06/22 02:51:48;;;;;;;5.73;5.30;;;28.90;54.30;;;;;;4962496;28;20511;-82
2023/06/22 02:54:20;;;;;;;6.33;5.73;;;28.80;54.30;;;;;;4976117;28;20443;-82
2023/06/22 02:56:50;;;;;;;5.30;4.80;;;28.90;54.40;;;;;;4998217;28;20431;-82
2023/06/22 02:59:23;;;;;;;4.83;4.53;;;28.80;54.40;;;;;;4982002;28;20448;-82
2023/06/22 03:01:51;;;;;;;5.67;5.17;;;28.80;54.40;;;;;;4963537;28;20434;-83
2023/06/22 03:04:27;;;;;;;5.00;4.60;;;28.80;54.50;;;;;;4959862;28;20569;-82
2023/06/22 03:06:53;;;;;;;5.90;5.50;;;28.80;54.50;;;;;;4945897;28;20445;-82
2023/06/22 03:09:19;;;;;;;5.47;4.90;;;28.80;54.50;;;;;;4978608;28;20436;-82
2023/06/22 03:11:48;;;;;;;5.00;4.70;;;28.80;54.50;;;;;;4962696;28;20445;-82
2023/06/22 03:14:14;;;;;;;6.30;5.80;;;28.80;54.60;;;;;;4978178;28;20492;-81
2023/06/22 03:16:40;;;;;;;5.70;5.30;;;28.70;54.60;;;;;;4977821;28;20512;-81
2023/06/22 03:19:08;;;;;;;6.13;5.63;;;28.70;54.60;;;;;;4962136;28;20249;-80
2023/06/22 03:21:37;;;;;;;5.67;5.27;;;28.70;54.70;;;;;;4961820;28;20436;-81
2023/06/22 03:24:07;;;;;;;5.63;5.27;;;28.70;54.70;;;;;;4994797;28;20472;-81
2023/06/22 03:26:34;;;;;;;5.90;5.50;;;28.70;54.70;;;;;;4978313;28;20444;-82
2023/06/22 03:29:00;;;;;;;6.30;5.80;;;28.70;54.80;;;;;;4978211;28;20464;-81
2023/06/22 03:31:28;;;;;;;5.80;5.30;;;28.70;54.90;;;;;;4978215;28;20726;-81
2023/06/22 03:33:54;;;;;;;5.80;5.33;;;28.60;54.80;;;;;;4977309;28;20421;-81
2023/06/22 03:36:25;;;;;;;5.30;4.87;;;28.60;54.80;;;;;;4959002;28;20465;-81
2023/06/22 03:38:51;;;;;;;5.40;4.67;;;28.60;55.40;;;;;;4967047;28;20416;-81
2023/06/22 03:41:20;;;;;;;5.20;4.90;;;28.60;54.90;;;;;;4981140;28;20507;-81
2023/06/22 03:43:47;;;;;;;5.40;4.97;;;28.60;54.90;;;;;;4954452;28;20461;-81
2023/06/22 03:46:14;;;;;;;5.10;4.70;;;28.60;54.90;;;;;;4984066;28;20495;-81
2023/06/22 03:48:43;;;;;;;5.70;5.30;;;28.60;54.90;;;;;;4978515;28;20786;-81
2023/06/22 03:51:11;;;;;;;5.87;5.47;;;28.60;55.00;;;;;;4942977;28;20450;-81
2023/06/22 03:53:39;;;;;;;5.50;5.10;;;28.50;55.00;;;;;;4963570;28;20237;-81
2023/06/22 03:56:05;;;;;;;5.80;5.40;;;28.60;55.10;;;;;;4993848;28;20456;-81
2023/06/22 03:58:32;;;;;;;5.80;5.40;;;28.50;55.10;;;;;;4972493;28;20433;-80
2023/06/22 04:01:01;;;;;;;5.70;5.30;;;28.50;55.10;;;;;;4978753;28;20553;-81
2023/06/22 04:03:29;;;;;;;5.07;4.67;;;28.50;55.10;;;;;;4995384;28;20500;-81
2023/06/22 04:05:55;;;;;;;5.90;5.40;;;28.50;55.20;;;;;;4964532;28;20507;-81
2023/06/22 04:08:21;;;;;;;5.50;5.10;;;28.50;55.20;;;;;;4980578;28;20221;-81
2023/06/22 04:11:12;;;;;;;8.60;6.17;;;28.40;55.20;;;;;;4999500;28;20181;-81
2023/06/22 04:13:38;;;;;;;6.10;5.70;;;28.50;55.40;;;;;;4978675;28;20773;-82
2023/06/22 04:16:04;;;;;;;6.00;5.60;;;28.50;55.40;;;;;;4996916;28;20228;-81
2023/06/22 04:18:30;;;;;;;6.07;5.67;;;28.40;55.30;;;;;;5014092;28;20189;-81
2023/06/22 04:20:55;;;;;;;5.53;5.13;;;28.40;55.30;;;;;;4996795;28;20451;-81
2023/06/22 04:23:26;;;;;;;5.73;5.33;;;28.40;55.40;;;;;;4980176;28;20186;-81
2023/06/22 04:25:52;;;;;;;5.77;5.37;;;28.40;55.40;;;;;;4980313;28;20460;-81
2023/06/22 04:28:17;;;;;;;6.20;5.63;;;28.40;55.40;;;;;;5013944;28;20858;-81
2023/06/22 04:30:48;;;;;;;5.87;5.43;;;28.40;55.40;;;;;;4986776;28;20216;-81
2023/06/22 04:33:17;;;;;;;5.97;5.57;;;28.40;55.40;;;;;;4972734;28;20428;-81
2023/06/22 04:35:46;;;;;;;6.00;5.50;;;28.40;55.40;;;;;;4984364;28;20428;-81
2023/06/22 04:38:14;;;;;;;5.87;5.47;;;28.30;55.40;;;;;;5003019;28;20425;-81
2023/06/22 04:40:40;;;;;;;5.80;5.40;;;28.30;55.40;;;;;;4994416;28;20925;-81
2023/06/22 04:43:09;;;;;;;5.60;5.20;;;28.30;55.40;;;;;;4985754;28;20429;-81
2023/06/22 04:45:38;;;;;;;6.37;5.97;;;28.30;55.50;;;;;;5022993;28;20260;-81
2023/06/22 04:48:05;;;;;;;5.70;5.30;;;28.30;55.50;;;;;;4996805;28;20479;-81
2023/06/22 04:50:33;;;;;;;6.43;5.17;;;28.30;55.50;;;;;;5013907;28;20184;-81
2023/06/22 04:52:59;;;;;;;5.30;5.00;;;28.30;55.50;;;;;;4982580;28;20444;-81
2023/06/22 04:55:27;;;;;;;5.70;5.27;;;28.30;55.60;;;;;;5000085;28;20428;-81
2023/06/22 04:58:04;;;;;;;5.33;4.93;;;28.30;55.60;;;;;;4992299;28;20514;-81
2023/06/22 05:00:31;;;;;;;5.70;5.27;;;28.20;55.60;;;;;;4986710;28;20451;-81
2023/06/22 05:02:57;;;;;;;6.63;6.13;;;28.20;55.60;;;;;;4995655;28;20432;-81
2023/06/22 05:05:24;;;;;;;6.37;5.77;;;28.20;55.70;;;;;;4997519;28;20884;-81
2023/06/22 05:07:52;;;;;;;5.50;5.10;;;28.20;55.80;;;;;;4999787;28;20523;-81
2023/06/22 05:10:20;;;;;;;6.07;5.67;;;28.20;55.80;;;;;;5016487;28;20527;-81
2023/06/22 05:13:12;;;;;;;6.20;5.70;;;28.20;55.80;;;;;;4982998;28;20477;-81
2023/06/22 05:15:41;;;;;;;5.93;5.47;;;28.20;55.80;;;;;;4976683;28;20432;-81
2023/06/22 05:18:11;;;;;;;5.97;5.57;;;28.20;55.80;;;;;;4964354;28;20874;-81
2023/06/22 05:20:39;;;;;;;5.97;5.50;;;28.20;56.00;;;;;;5010508;28;20522;-81
2023/06/22 05:23:10;;;;;;;6.47;5.97;;;28.10;55.90;;;;;;4951718;28;20444;-81
2023/06/22 05:25:36;;;;;;;5.93;5.43;;;28.10;56.00;;;;;;4980108;28;20484;-81
2023/06/22 05:28:05;;;;;;;5.90;5.40;;;28.10;56.00;;;;;;4985246;28;20425;-81
2023/06/22 05:30:34;;;;;;;6.00;5.60;;;28.10;56.00;;;;;;5016438;28;20451;-80
2023/06/22 05:33:02;;;;;;;5.67;5.27;;;28.10;56.00;;;;;;4998355;28;20444;-80
2023/06/22 05:35:29;;;;;;;5.63;5.23;;;28.10;56.00;;;;;;4960311;28;20183;-80
2023/06/22 05:37:57;;;;;;;6.20;5.67;;;28.10;56.10;;;;;;4965402;28;20462;-81
2023/06/22 05:40:27;;;;;;;6.83;6.10;;;28.00;56.00;;;;;;4984670;28;20427;-81
2023/06/22 05:42:55;;;;;;;5.97;5.47;;;28.10;56.20;;;;;;4996776;28;20783;-81
2023/06/22 05:45:21;;;;;;;5.77;5.27;;;28.10;56.20;;;;;;5000107;28;20485;-81
2023/06/22 05:47:47;;;;;;;5.90;5.50;;;28.00;56.10;;;;;;4979676;28;20425;-81
2023/06/22 05:50:13;;;;;;;6.07;5.67;;;28.00;56.20;;;;;;4984549;28;20260;-81
2023/06/22 05:52:39;;;;;;;6.17;5.67;;;28.00;56.30;;;;;;5016014;28;20408;-81
2023/06/22 05:55:07;;;;;;;6.40;5.80;;;28.00;56.30;;;;;;4980627;28;20268;-80
2023/06/22 05:57:36;;;;;;;5.53;5.13;;;28.00;56.40;;;;;;4972712;28;20796;-80
2023/06/22 06:00:07;;;;;;;5.90;5.50;;;28.00;56.50;;;;;;4989650;28;20428;-81
2023/06/22 06:02:43;;;;;;;6.60;6.10;;;28.00;56.50;;;;;;4972619;28;20223;-80
2023/06/22 06:05:14;;;;;;;6.10;5.60;;;28.00;56.70;;;;;;5000670;28;20966;-80
2023/06/22 06:07:40;;;;;;;6.60;5.90;;;28.00;56.80;;;;;;4968838;28;20509;-80
2023/06/22 06:10:07;;;;;;;6.13;5.73;;;28.00;56.90;;;;;;4998607;28;20525;-80
2023/06/22 06:12:33;;;;;;;7.03;6.20;;;27.90;57.00;;;;;;4998382;28;20560;-80
2023/06/22 06:14:59;;;;;;;6.47;5.87;;;27.90;57.20;;;;;;4998284;28;21117;-80
2023/06/22 06:17:27;;;;;;;6.20;5.60;;;27.90;57.10;;;;;;4959706;28;20448;-81
2023/06/22 06:19:53;;;;;;;6.40;5.90;;;27.90;57.20;;;;;;4959717;28;20208;-82
2023/06/22 06:22:20;;;;;;;5.90;5.40;;;27.90;57.20;;;;;;4980142;28;21111;-81
2023/06/22 06:24:47;;;;;;;6.57;6.07;;;27.90;57.30;;;;;;4999109;28;20225;-82
2023/06/22 06:27:13;;;;;;;5.93;5.53;;;27.90;57.40;;;;;;4967724;28;20420;-83
2023/06/22 06:29:39;;;;;;;6.60;6.07;;;27.90;57.50;;;;;;4992319;28;20811;-81
2023/06/22 06:32:08;;;;;;;5.77;5.27;;;27.90;57.50;;;;;;4996810;28;20445;-82
2023/06/22 06:34:36;;;;;;;6.50;6.00;;;27.90;57.50;;;;;;4997780;28;20757;-81
2023/06/22 06:37:05;;;;;;;6.70;6.00;;;27.90;57.50;;;;;;4970193;28;20493;-82
2023/06/22 06:39:31;;;;;;;6.20;5.60;;;27.90;57.70;;;;;;4976456;28;20207;-82
2023/06/22 06:42:04;;;;;;;6.37;5.80;;;27.90;57.70;;;;;;4959758;28;20434;-82
2023/06/22 06:44:32;;;;;;;8.27;6.27;;;27.80;57.70;;;;;;5005800;28;20917;-80
2023/06/22 06:47:02;;;;;;;7.03;6.30;;;27.90;58.00;;;;;;4993467;28;20804;-80
2023/06/22 06:49:28;;;;;;;6.63;6.03;;;27.80;58.00;;;;;;4962643;28;20429;-81
2023/06/22 06:51:59;;;;;;;7.00;6.50;;;27.80;57.90;;;;;;4978276;28;20429;-80
2023/06/22 06:54:27;;;;;;;8.00;6.07;;;27.80;57.90;;;;;;4978715;28;20440;-81
2023/06/22 06:56:53;;;;;;;6.23;5.73;;;27.80;58.10;;;;;;4998573;28;20428;-80
2023/06/22 06:59:19;;;;;;;6.30;5.70;;;27.80;58.10;;;;;;4986653;28;20186;-81
2023/06/22 07:01:45;;;;;;;6.40;5.90;;;27.80;58.20;;;;;;5009885;28;20173;-81
2023/06/22 07:04:13;;;;;;;6.53;6.03;;;27.80;58.20;;;;;;5002692;28;20205;-81
2023/06/22 07:06:38;;;;;;;8.23;6.37;;;27.80;58.10;;;;;;4979788;28;20444;-81
2023/06/22 07:09:07;;;;;;;7.80;7.03;;;27.80;58.30;;;;;;4981572;28;20185;-81
2023/06/22 07:11:33;;;;;;;6.80;6.20;;;27.80;58.30;;;;;;4997759;28;20166;-80
2023/06/22 07:14:06;;;;;;;6.83;6.17;;;27.70;58.50;;;;;;4986113;28;20604;-80
2023/06/22 07:16:37;;;;;;;6.90;6.40;;;27.70;58.40;;;;;;4993187;28;20490;-80
2023/06/22 07:19:07;;;;;;;6.13;5.63;;;27.70;58.30;;;;;;4981663;28;20436;-82
2023/06/22 07:21:37;;;;;;;7.30;6.60;;;27.70;58.50;;;;;;4997775;28;20471;-82
2023/06/22 07:24:06;;;;;;;7.30;6.70;;;27.70;58.70;;;;;;4964357;28;20464;-82
2023/06/22 07:26:36;;;;;;;6.93;6.33;;;27.70;58.70;;;;;;4996703;28;20444;-81
2023/06/22 07:29:04;;;;;;;6.90;6.20;;;27.70;58.80;;;;;;4978208;28;20762;-80
2023/06/22 07:31:33;;;;;;;7.13;6.50;;;27.60;58.90;;;;;;4994808;28;20456;-81
2023/06/22 07:33:59;;;;;;;7.17;6.67;;;27.60;58.80;;;;;;4977700;28;20428;-81
2023/06/22 07:36:25;;;;;;;7.40;6.80;;;27.70;59.00;;;;;;4997526;28;20417;-81
2023/06/22 07:38:51;;;;;;;6.33;5.83;;;27.60;58.80;;;;;;4978158;28;20419;-81
2023/06/22 07:41:20;;;;;;;7.37;6.73;;;27.60;58.80;;;;;;4978271;28;20194;-82
2023/06/22 07:43:49;;;;;;;7.63;6.93;;;27.60;59.00;;;;;;5010297;28;20177;-83
2023/06/22 07:46:15;;;;;;;6.87;6.27;;;27.60;58.90;;;;;;5014691;28;20475;-82
2023/06/22 07:48:44;;;;;;;8.03;6.77;;;27.60;58.90;;;;;;5014322;28;20208;-82
2023/06/22 07:51:12;;;;;;;6.47;5.97;;;27.60;59.00;;;;;;4997040;28;20431;-81
2023/06/22 07:53:43;;;;;;;6.97;6.07;;;27.60;59.00;;;;;;5016947;28;20417;-80
2023/06/22 07:56:12;;;;;;;7.47;6.83;;;27.60;59.10;;;;;;5011400;28;20452;-82
2023/06/22 07:58:45;;;;;;;6.53;5.93;;;27.60;59.10;;;;;;5000775;28;20428;-81
2023/06/22 08:01:13;;;;;;;6.83;5.97;;;27.60;59.20;;;;;;4957982;28;20888;-83
2023/06/22 08:03:39;;;;;;;7.13;6.53;;;27.60;59.40;;;;;;5004268;28;20432;-84
2023/06/22 08:06:08;;;;;;;7.00;6.40;;;27.50;59.30;;;;;;4995253;28;20463;-82
2023/06/22 08:08:35;;;;;;;7.20;6.60;;;27.60;59.40;;;;;;4977185;28;20441;-82
2023/06/22 08:11:01;;;;;;;7.60;6.80;;;27.50;59.30;;;;;;4977619;28;20425;-82
2023/06/22 08:13:29;;;;;;;8.17;7.30;;;27.50;59.50;;;;;;4998763;28;20535;-82
2023/06/22 08:15:57;;;;;;;7.90;7.30;;;27.50;59.60;;;;;;4989485;28;20441;-82
2023/06/22 08:18:26;;;;;;;8.33;7.57;;;27.50;59.70;;;;;;4980656;28;20479;-82
2023/06/22 08:20:52;;;;;;;7.30;6.70;;;27.50;59.70;;;;;;4997076;28;20185;-82
2023/06/22 08:23:18;;;;;;;7.47;6.87;;;27.50;59.80;;;;;;4993777;28;20445;-83
2023/06/22 08:25:48;;;;;;;8.13;7.00;;;27.50;60.50;;;;;;4977620;28;20441;-82
2023/06/22 08:28:16;;;;;;;7.27;6.67;;;27.50;60.40;;;;;;4981490;28;20999;-81
2023/06/22 08:30:42;;;;;;;7.67;7.00;;;27.50;60.30;;;;;;4981355;28;20463;-82
2023/06/22 08:33:10;;;;;;;8.63;7.83;;;27.50;60.10;;;;;;4997997;28;20182;-82
2023/06/22 08:35:36;;;;;;;8.20;7.47;;;27.50;60.50;;;;;;4994527;28;20659;-82
2023/06/22 08:38:02;;;;;;;8.10;7.40;;;27.50;60.90;;;;;;4983804;28;20456;-81
2023/06/22 08:40:29;;;;;;;7.07;6.57;;;27.50;60.80;;;;;;4953312;28;20272;-81
2023/06/22 08:42:55;;;;;;;7.47;6.87;;;27.40;60.20;;;;;;4983494;28;20460;-82
2023/06/22 08:45:24;;;;;;;7.00;6.50;;;27.50;60.10;;;;;;4990314;28;20501;-82
2023/06/22 08:47:50;;;;;;;8.00;7.30;;;27.40;59.90;;;;;;4965177;28;20457;-82
2023/06/22 08:50:16;;;;;;;7.20;6.60;;;27.50;61.00;;;;;;4964406;28;20428;-81
2023/06/22 08:52:45;;;;;;;7.97;7.17;;;27.50;61.40;;;;;;4970683;28;20209;-82
2023/06/22 08:55:14;;;;;;;8.30;7.20;;;27.50;61.20;;;;;;4990036;28;20424;-81
2023/06/22 08:57:40;;;;;;;7.90;7.30;;;27.50;61.20;;;;;;5011010;28;20530;-81
2023/06/22 09:00:19;;;;;;;7.77;7.07;;;27.40;60.60;;;;;;4998949;28;20467;-81
2023/06/22 09:02:51;;;;;;;7.57;6.87;;;27.50;60.80;;;;;;4997587;28;20176;-82
2023/06/22 09:05:17;;;;;;;8.30;7.60;;;27.50;61.90;;;;;;5005258;28;20547;-81
2023/06/22 09:07:43;;;;;;;8.97;8.27;;;27.50;62.10;;;;;;4997488;28;20816;-81
2023/06/22 09:10:10;;;;;;;7.27;6.67;;;27.50;63.00;;;;;;4997337;28;20441;-81
2023/06/22 09:12:38;;;;;;;7.80;7.10;;;27.50;62.70;;;;;;4964216;28;20814;-80
2023/06/22 09:15:06;;;;;;;8.57;7.87;;;27.50;62.70;;;;;;4972626;28;20428;-81
2023/06/22 09:17:35;;;;;;;7.60;7.10;;;27.50;63.30;;;;;;4995619;28;20428;-82
2023/06/22 09:20:05;;;;;;;8.77;8.10;;;27.60;62.90;;;;;;5016570;28;20509;-82
2023/06/22 09:22:36;;;;;;;8.70;7.90;;;27.60;63.60;;;;;;5016326;28;20416;-82
2023/06/22 09:25:03;;;;;;;9.13;8.33;;;27.60;64.70;;;;;;4999480;28;20530;-81
2023/06/22 09:27:29;;;;;;;8.20;7.33;;;27.60;64.10;;;;;;5016527;28;20433;-82
2023/06/22 09:29:55;;;;;;;9.63;7.90;;;27.60;63.40;;;;;;4983374;28;20814;-82
2023/06/22 09:32:21;;;;;;;8.70;8.00;;;27.60;63.20;;;;;;4983015;28;20464;-81
2023/06/22 09:34:49;;;;;;;8.50;7.80;;;27.70;63.00;;;;;;4975149;28;21117;-82
2023/06/22 09:37:20;;;;;;;9.87;8.83;;;27.60;63.70;;;;;;4998182;28;20256;-81
2023/06/22 09:39:46;;;;;;;8.80;8.10;;;27.70;64.80;;;;;;5002169;28;20438;-82
2023/06/22 09:42:14;;;;;;;8.47;7.87;;;27.70;63.60;;;;;;4964247;28;20893;-81
2023/06/22 09:44:40;;;;;;;8.53;7.73;;;27.70;63.40;;;;;;4977430;28;20473;-80
2023/06/22 09:47:06;;;;;;;10.50;9.43;;;27.70;64.20;;;;;;4986815;28;20484;-81
2023/06/22 09:49:32;;;;;;;9.20;8.30;;;27.70;64.50;;;;;;4979674;28;20198;-81
2023/06/22 09:52:04;;;;;;;8.67;7.97;;;27.70;64.60;;;;;;4980281;28;20423;-86
2023/06/22 09:54:37;;;;;;;10.23;8.93;;;27.70;64.90;;;;;;4999189;28;20587;-82
2023/06/22 09:57:08;;;;;;;8.50;7.73;;;27.80;64.40;;;;;;5013852;28;20772;-81
2023/06/22 09:59:36;;;;;;;10.03;9.23;;;27.80;64.30;;;;;;4998987;28;20416;-81
2023/06/22 10:02:02;;;;;;;8.70;7.90;;;27.80;64.30;;;;;;4970625;28;20443;-80
2023/06/22 10:04:28;;;;;;;9.23;8.53;;;27.80;64.10;;;;;;5015840;28;20217;-80
2023/06/22 10:06:56;;;;;;;9.20;8.50;;;27.80;64.70;;;;;;5001222;28;20783;-81
2023/06/22 10:09:27;;;;;;;9.77;8.87;;;27.80;64.40;;;;;;4980030;28;20429;-82
2023/06/22 10:11:53;;;;;;;10.10;9.10;;;27.80;64.60;;;;;;4979453;28;20477;-82
2023/06/22 10:14:19;;;;;;;9.50;8.60;;;27.80;64.60;;;;;;4996664;28;20425;-82
2023/06/22 10:16:45;;;;;;;9.43;8.63;;;27.80;64.50;;;;;;4979302;28;20437;-83
2023/06/22 10:19:11;;;;;;;9.00;8.27;;;27.80;64.70;;;;;;4979225;28;20456;-83
2023/06/22 10:21:37;;;;;;;9.93;9.10;;;27.80;64.30;;;;;;4986167;28;20543;-83
2023/06/22 10:24:05;;;;;;;9.33;8.63;;;27.80;64.50;;;;;;5008432;28;20191;-82
2023/06/22 10:26:36;;;;;;;9.57;8.77;;;27.90;64.40;;;;;;4995584;28;20429;-82
2023/06/22 10:29:03;;;;;;;8.77;8.17;;;27.90;64.60;;;;;;5003588;28;20747;-82
2023/06/22 10:31:34;;;;;;;10.30;9.50;;;27.90;64.30;;;;;;5000106;28;20418;-80
2023/06/22 10:34:00;;;;;;;9.57;8.83;;;27.90;65.30;;;;;;4952866;28;20465;-79
2023/06/22 10:36:28;;;;;;;8.97;8.27;;;27.90;64.60;;;;;;4974006;28;20429;-80
2023/06/22 10:38:59;;;;;;;11.07;9.93;;;27.90;64.40;;;;;;4991312;28;20468;-80
2023/06/22 10:41:25;;;;;;;9.90;9.07;;;27.90;64.50;;;;;;4946621;28;20417;-80
2023/06/22 10:43:50;;;;;;;10.50;9.50;;;27.90;64.50;;;;;;4960584;28;20439;-80
2023/06/22 10:46:16;;;;;;;10.60;9.80;;;27.90;64.50;;;;;;4978183;28;20206;-80
2023/06/22 10:48:45;;;;;;;10.53;9.63;;;27.90;64.80;;;;;;5015253;28;20173;-81
2023/06/22 10:51:10;;;;;;;10.33;9.40;;;27.90;64.30;;;;;;4981770;28;20420;-81
2023/06/22 10:53:38;;;;;;;10.73;9.73;;;27.90;63.90;;;;;;4961035;28;20927;-80
2023/06/22 10:56:04;;;;;;;10.00;9.20;;;27.90;64.20;;;;;;4959047;28;20644;-81
2023/06/22 10:58:30;;;;;;;10.43;9.60;;;27.90;63.80;;;;;;4943416;28;20445;-80
2023/06/22 11:00:58;;;;;;;10.37;9.60;;;27.90;63.70;;;;;;4975681;28;20281;-81
2023/06/22 11:03:26;;;;;;;10.10;9.40;;;27.90;63.80;;;;;;4974740;28;20214;-81
2023/06/22 11:05:52;;;;;;;9.90;9.10;;;27.90;63.80;;;;;;4995283;28;20457;-81
2023/06/22 11:08:18;;;;;;;9.67;8.97;;;27.90;64.20;;;;;;4977960;28;20445;-81
2023/06/22 11:10:44;;;;;;;10.27;9.27;;;27.90;64.30;;;;;;4989914;28;20188;-81
2023/06/22 11:13:15;;;;;;;10.00;9.17;;;27.90;64.40;;;;;;4997382;28;20786;-80
2023/06/22 11:15:43;;;;;;;10.17;9.43;;;27.90;65.40;;;;;;4987003;28;20487;-80
2023/06/22 11:18:11;;;;;;;10.57;9.67;;;27.90;66.60;;;;;;4992783;28;20517;-81
2023/06/22 11:20:40;;;;;;;14.20;10.50;;;27.90;67.00;;;;;;4977686;28;20444;-84
2023/06/22 11:23:08;;;;;;;17.00;10.90;;;27.90;68.00;;;;;;4982800;28;20848;-81
2023/06/22 11:25:38;;;;;;;11.53;10.53;;;27.90;69.20;;;;;;4992617;28;20531;-83
2023/06/22 11:28:04;;;;;;;10.67;9.60;;;27.90;68.50;;;;;;4961997;28;20456;-84
2023/06/22 11:30:30;;;;;;;10.40;9.50;;;27.90;68.10;;;;;;4958841;28;20438;-87
2023/06/22 11:32:59;;;;;;;11.07;9.97;;;27.90;67.50;;;;;;4958479;28;20499;-86
2023/06/22 11:35:51;;;;;;;10.10;9.20;;;27.80;67.00;;;;;;4975863;28;20469;-86
2023/06/22 11:38:17;;;;;;;10.50;9.60;;;27.80;66.70;;;;;;5014880;28;20432;-86
2023/06/22 11:40:45;;;;;;;10.33;9.43;;;27.80;66.70;;;;;;4981679;28;20527;-87
2023/06/22 11:43:14;;;;;;;9.80;9.00;;;27.80;66.60;;;;;;4965664;28;20878;-87
2023/06/22 11:45:43;;;;;;;10.13;9.33;;;27.80;66.80;;;;;;4994124;28;20476;-87
2023/06/22 11:48:11;;;;;;;10.73;9.63;;;27.80;66.70;;;;;;4962392;28;20436;-86
2023/06/22 11:50:37;;;;;;;10.33;9.43;;;27.80;66.70;;;;;;4995234;28;20418;-87
2023/06/22 11:53:03;;;;;;;9.93;8.87;;;27.80;66.50;;;;;;4959610;28;20183;-88
2023/06/22 11:55:31;;;;;;;11.50;10.40;;;27.80;66.50;;;;;;4978173;28;21044;-87
2023/06/22 11:58:04;;;;;;;11.10;9.90;;;27.80;66.80;;;;;;4962454;28;20457;-88
2023/06/22 12:00:30;;;;;;;11.30;10.30;;;27.80;67.00;;;;;;5001520;28;20757;-87
2023/06/22 12:02:58;;;;;;;12.67;11.47;;;27.70;67.20;;;;;;4990220;28;20465;-86
2023/06/22 12:05:24;;;;;;;10.40;9.40;;;27.80;67.40;;;;;;5006813;28;20479;-87
2023/06/22 12:07:52;;;;;;;10.70;9.57;;;27.70;67.70;;;;;;5001193;28;20429;-85
2023/06/22 12:10:21;;;;;;;11.73;10.70;;;27.80;67.70;;;;;;4973710;28;20480;-86
2023/06/22 12:12:52;;;;;;;14.60;10.50;;;27.70;67.80;;;;;;4979379;28;20398;-85
2023/06/22 12:15:17;;;;;;;10.63;9.67;;;27.70;68.10;;;;;;4969110;28;20899;-85
2023/06/22 12:17:48;;;;;;;11.60;10.60;;;27.70;68.10;;;;;;4972810;28;20453;-84
2023/06/22 12:20:18;;;;;;;11.50;10.40;;;27.70;68.20;;;;;;4983498;28;20516;-85
2023/06/22 12:22:44;;;;;;;11.83;10.83;;;27.70;68.40;;;;;;4961897;28;20520;-85
2023/06/22 12:25:10;;;;;;;12.30;11.10;;;27.70;68.50;;;;;;4945752;28;20480;-84
2023/06/22 12:27:37;;;;;;;11.93;10.73;;;27.70;68.70;;;;;;4961842;28;20421;-85
2023/06/22 12:30:04;;;;;;;12.07;10.87;;;27.70;68.40;;;;;;5002424;28;20461;-84
2023/06/22 12:32:32;;;;;;;12.60;11.37;;;27.70;68.60;;;;;;4974189;28;20502;-84
2023/06/22 12:34:59;;;;;;;11.87;10.83;;;27.70;68.70;;;;;;4967747;28;20435;-87
2023/06/22 12:37:43;;;;;;;11.67;10.67;;;27.70;68.70;;;;;;5017859;28;20448;-85
2023/06/22 12:40:11;;;;;;;10.63;9.70;;;27.70;68.30;;;;;;5017864;28;20478;-83
2023/06/22 12:42:37;;;;;;;11.97;10.30;;;27.70;68.40;;;;;;4993438;28;20444;-84
2023/06/22 12:45:06;;;;;;;12.33;11.13;;;27.70;68.30;;;;;;4994550;28;20482;-83
2023/06/22 12:47:35;;;;;;;11.50;10.40;;;27.70;68.70;;;;;;4984286;28;20432;-83
2023/06/22 12:50:01;;;;;;;11.63;10.63;;;27.70;68.80;;;;;;4984423;28;20503;-84
2023/06/22 12:52:26;;;;;;;11.43;10.33;;;27.70;69.10;;;;;;4987291;28;20437;-84